sensor_id;sensor_type;location;lat;lon;timestamp;P1;durP1;ratioP1;P2;durP2;ratioP2
4819;SDS011;2424;49.696;6.630;2023-04-16T00:00:04;0.50;;;0.50;;
4819;SDS011;2424;49.696;6.630;2023-04-16T00:05:27;0.40;;;0.40;;
4819;SDS011;2424;49.696;6.630;2023-04-16T00:10:51;0.97;;;0.47;;
4819;SDS011;2424;49.696;6.630;2023-04-16T00:16:13;0.53;;;0.53;;
4819;SDS011;2424;49.696;6.630;2023-04-16T00:21:35;0.87;;;0.30;;
4819;SDS011;2424;49.696;6.630;2023-04-16T00:26:59;0.47;;;0.47;;
4819;SDS011;2424;49.696;6.630;2023-04-16T00:32:21;0.60;;;0.60;;
4819;SDS011;2424;49.696;6.630;2023-04-16T00:37:43;0.30;;;0.30;;
4819;SDS011;2424;49.696;6.630;2023-04-16T00:43:06;0.57;;;0.57;;
4819;SDS011;2424;49.696;6.630;2023-04-16T00:48:28;1.27;;;0.97;;
4819;SDS011;2424;49.696;6.630;2023-04-16T00:53:51;0.30;;;0.30;;
4819;SDS011;2424;49.696;6.630;2023-04-16T00:59:15;0.60;;;0.60;;
4819;SDS011;2424;49.696;6.630;2023-04-16T01:04:37;0.40;;;0.40;;
4819;SDS011;2424;49.696;6.630;2023-04-16T01:09:59;1.50;;;0.50;;
4819;SDS011;2424;49.696;6.630;2023-04-16T01:15:22;0.30;;;0.30;;
4819;SDS011;2424;49.696;6.630;2023-04-16T01:20:46;0.40;;;0.40;;
4819;SDS011;2424;49.696;6.630;2023-04-16T01:26:08;0.80;;;0.80;;
4819;SDS011;2424;49.696;6.630;2023-04-16T01:31:30;0.40;;;0.40;;
4819;SDS011;2424;49.696;6.630;2023-04-16T01:36:53;0.60;;;0.60;;
4819;SDS011;2424;49.696;6.630;2023-04-16T01:42:15;2.00;;;0.80;;
4819;SDS011;2424;49.696;6.630;2023-04-16T01:47:37;0.60;;;0.60;;
4819;SDS011;2424;49.696;6.630;2023-04-16T01:53:01;0.57;;;0.40;;
4819;SDS011;2424;49.696;6.630;2023-04-16T01:58:24;0.50;;;0.50;;
4819;SDS011;2424;49.696;6.630;2023-04-16T02:03:48;0.80;;;0.30;;
4819;SDS011;2424;49.696;6.630;2023-04-16T02:09:12;0.40;;;0.40;;
4819;SDS011;2424;49.696;6.630;2023-04-16T02:14:34;0.33;;;0.33;;
4819;SDS011;2424;49.696;6.630;2023-04-16T02:19:56;0.90;;;0.53;;
4819;SDS011;2424;49.696;6.630;2023-04-16T02:25:19;0.30;;;0.20;;
4819;SDS011;2424;49.696;6.630;2023-04-16T02:30:42;0.40;;;0.40;;
4819;SDS011;2424;49.696;6.630;2023-04-16T02:36:04;0.37;;;0.37;;
4819;SDS011;2424;49.696;6.630;2023-04-16T02:41:28;0.60;;;0.60;;
4819;SDS011;2424;49.696;6.630;2023-04-16T02:46:50;0.40;;;0.40;;
4819;SDS011;2424;49.696;6.630;2023-04-16T02:52:12;0.20;;;0.17;;
4819;SDS011;2424;49.696;6.630;2023-04-16T02:57:35;0.50;;;0.33;;
4819;SDS011;2424;49.696;6.630;2023-04-16T03:02:57;0.60;;;0.60;;
4819;SDS011;2424;49.696;6.630;2023-04-16T03:08:19;0.77;;;0.77;;
4819;SDS011;2424;49.696;6.630;2023-04-16T03:13:42;0.73;;;0.67;;
4819;SDS011;2424;49.696;6.630;2023-04-16T03:19:04;0.67;;;0.67;;
4819;SDS011;2424;49.696;6.630;2023-04-16T03:24:26;0.37;;;0.37;;
4819;SDS011;2424;49.696;6.630;2023-04-16T03:29:50;1.33;;;0.50;;
4819;SDS011;2424;49.696;6.630;2023-04-16T03:35:12;1.17;;;0.90;;
4819;SDS011;2424;49.696;6.630;2023-04-16T03:40:34;0.50;;;0.50;;
4819;SDS011;2424;49.696;6.630;2023-04-16T03:45:57;0.63;;;0.60;;
4819;SDS011;2424;49.696;6.630;2023-04-16T03:51:19;0.60;;;0.60;;
4819;SDS011;2424;49.696;6.630;2023-04-16T03:56:41;0.80;;;0.80;;
4819;SDS011;2424;49.696;6.630;2023-04-16T04:02:04;0.70;;;0.70;;
4819;SDS011;2424;49.696;6.630;2023-04-16T04:07:26;1.33;;;0.73;;
4819;SDS011;2424;49.696;6.630;2023-04-16T04:12:48;0.60;;;0.60;;
4819;SDS011;2424;49.696;6.630;2023-04-16T04:18:11;1.00;;;1.00;;
4819;SDS011;2424;49.696;6.630;2023-04-16T04:23:33;0.67;;;0.67;;
4819;SDS011;2424;49.696;6.630;2023-04-16T04:28:55;1.23;;;0.80;;
4819;SDS011;2424;49.696;6.630;2023-04-16T04:34:19;1.10;;;0.83;;
4819;SDS011;2424;49.696;6.630;2023-04-16T04:39:41;0.87;;;0.87;;
4819;SDS011;2424;49.696;6.630;2023-04-16T04:45:03;0.90;;;0.90;;
4819;SDS011;2424;49.696;6.630;2023-04-16T04:50:27;0.90;;;0.90;;
4819;SDS011;2424;49.696;6.630;2023-04-16T04:55:49;0.73;;;0.73;;
4819;SDS011;2424;49.696;6.630;2023-04-16T05:01:11;0.90;;;0.60;;
4819;SDS011;2424;49.696;6.630;2023-04-16T05:06:34;0.50;;;0.50;;
4819;SDS011;2424;49.696;6.630;2023-04-16T05:11:56;1.43;;;0.93;;
4819;SDS011;2424;49.696;6.630;2023-04-16T05:17:18;1.03;;;0.90;;
4819;SDS011;2424;49.696;6.630;2023-04-16T05:22:41;0.80;;;0.80;;
4819;SDS011;2424;49.696;6.630;2023-04-16T05:28:03;1.07;;;0.90;;
4819;SDS011;2424;49.696;6.630;2023-04-16T05:33:25;0.40;;;0.40;;
4819;SDS011;2424;49.696;6.630;2023-04-16T05:38:48;0.90;;;0.90;;
4819;SDS011;2424;49.696;6.630;2023-04-16T05:44:10;0.30;;;0.30;;
4819;SDS011;2424;49.696;6.630;2023-04-16T05:49:34;1.20;;;1.10;;
4819;SDS011;2424;49.696;6.630;2023-04-16T05:54:57;0.93;;;0.80;;
4819;SDS011;2424;49.696;6.630;2023-04-16T06:00:20;1.00;;;1.00;;
4819;SDS011;2424;49.696;6.630;2023-04-16T06:05:42;0.83;;;0.83;;
4819;SDS011;2424;49.696;6.630;2023-04-16T06:11:06;1.50;;;1.40;;
4819;SDS011;2424;49.696;6.630;2023-04-16T06:16:27;0.70;;;0.70;;
4819;SDS011;2424;49.696;6.630;2023-04-16T06:21:49;1.30;;;1.20;;
4819;SDS011;2424;49.696;6.630;2023-04-16T06:27:14;1.03;;;1.00;;
4819;SDS011;2424;49.696;6.630;2023-04-16T06:32:36;0.70;;;0.70;;
4819;SDS011;2424;49.696;6.630;2023-04-16T06:37:58;2.77;;;0.70;;
4819;SDS011;2424;49.696;6.630;2023-04-16T06:43:21;1.07;;;0.97;;
4819;SDS011;2424;49.696;6.630;2023-04-16T06:48:43;0.67;;;0.40;;
4819;SDS011;2424;49.696;6.630;2023-04-16T06:54:06;1.00;;;0.90;;
4819;SDS011;2424;49.696;6.630;2023-04-16T06:59:29;0.90;;;0.90;;
4819;SDS011;2424;49.696;6.630;2023-04-16T07:04:51;1.90;;;1.23;;
4819;SDS011;2424;49.696;6.630;2023-04-16T07:10:13;0.93;;;0.93;;
4819;SDS011;2424;49.696;6.630;2023-04-16T07:15:36;1.40;;;1.30;;
4819;SDS011;2424;49.696;6.630;2023-04-16T07:20:58;1.33;;;1.23;;
4819;SDS011;2424;49.696;6.630;2023-04-16T07:26:20;1.27;;;1.27;;
4819;SDS011;2424;49.696;6.630;2023-04-16T07:31:44;1.37;;;1.30;;
4819;SDS011;2424;49.696;6.630;2023-04-16T07:37:05;1.67;;;1.60;;
4819;SDS011;2424;49.696;6.630;2023-04-16T07:42:27;1.83;;;1.73;;
4819;SDS011;2424;49.696;6.630;2023-04-16T07:47:51;3.10;;;1.30;;
4819;SDS011;2424;49.696;6.630;2023-04-16T07:53:13;1.40;;;1.40;;
4819;SDS011;2424;49.696;6.630;2023-04-16T07:58:35;0.80;;;0.80;;
4819;SDS011;2424;49.696;6.630;2023-04-16T08:03:58;1.23;;;1.23;;
4819;SDS011;2424;49.696;6.630;2023-04-16T08:09:21;1.10;;;1.07;;
4819;SDS011;2424;49.696;6.630;2023-04-16T08:14:44;1.73;;;1.27;;
4819;SDS011;2424;49.696;6.630;2023-04-16T08:20:08;0.73;;;0.73;;
4819;SDS011;2424;49.696;6.630;2023-04-16T08:25:30;1.13;;;0.93;;
4819;SDS011;2424;49.696;6.630;2023-04-16T08:30:52;0.70;;;0.70;;
4819;SDS011;2424;49.696;6.630;2023-04-16T08:36:16;1.10;;;1.03;;
4819;SDS011;2424;49.696;6.630;2023-04-16T08:41:40;0.80;;;0.80;;
4819;SDS011;2424;49.696;6.630;2023-04-16T08:47:03;0.50;;;0.50;;
4819;SDS011;2424;49.696;6.630;2023-04-16T08:52:30;0.30;;;0.30;;
4819;SDS011;2424;49.696;6.630;2023-04-16T08:57:53;0.70;;;0.70;;
4819;SDS011;2424;49.696;6.630;2023-04-16T09:03:19;1.03;;;1.03;;
4819;SDS011;2424;49.696;6.630;2023-04-16T09:08:43;0.60;;;0.60;;
4819;SDS011;2424;49.696;6.630;2023-04-16T09:14:06;0.30;;;0.30;;
4819;SDS011;2424;49.696;6.630;2023-04-16T09:19:30;1.10;;;0.73;;
4819;SDS011;2424;49.696;6.630;2023-04-16T09:24:53;2.30;;;1.77;;
4819;SDS011;2424;49.696;6.630;2023-04-16T09:30:22;1.63;;;1.30;;
4819;SDS011;2424;49.696;6.630;2023-04-16T09:35:45;0.40;;;0.40;;
4819;SDS011;2424;49.696;6.630;2023-04-16T09:41:09;0.67;;;0.67;;
4819;SDS011;2424;49.696;6.630;2023-04-16T09:46:32;1.23;;;1.23;;
4819;SDS011;2424;49.696;6.630;2023-04-16T09:51:55;1.37;;;1.37;;
4819;SDS011;2424;49.696;6.630;2023-04-16T09:57:20;1.40;;;1.30;;
4819;SDS011;2424;49.696;6.630;2023-04-16T10:02:43;1.60;;;1.50;;
4819;SDS011;2424;49.696;6.630;2023-04-16T10:08:10;2.20;;;1.70;;
4819;SDS011;2424;49.696;6.630;2023-04-16T10:13:34;3.27;;;1.77;;
4819;SDS011;2424;49.696;6.630;2023-04-16T10:18:56;1.37;;;1.20;;
4819;SDS011;2424;49.696;6.630;2023-04-16T10:24:19;3.90;;;1.57;;
4819;SDS011;2424;49.696;6.630;2023-04-16T10:29:43;2.07;;;1.60;;
4819;SDS011;2424;49.696;6.630;2023-04-16T10:35:06;5.60;;;2.10;;
4819;SDS011;2424;49.696;6.630;2023-04-16T10:40:28;1.57;;;1.50;;
4819;SDS011;2424;49.696;6.630;2023-04-16T10:45:51;1.90;;;1.80;;
4819;SDS011;2424;49.696;6.630;2023-04-16T10:51:24;1.67;;;1.60;;
4819;SDS011;2424;49.696;6.630;2023-04-16T10:56:50;3.20;;;1.73;;
4819;SDS011;2424;49.696;6.630;2023-04-16T11:02:15;1.90;;;0.53;;
4819;SDS011;2424;49.696;6.630;2023-04-16T11:07:43;1.20;;;1.20;;
4819;SDS011;2424;49.696;6.630;2023-04-16T11:13:08;3.70;;;2.60;;
4819;SDS011;2424;49.696;6.630;2023-04-16T11:18:34;0.40;;;0.27;;
4819;SDS011;2424;49.696;6.630;2023-04-16T11:23:57;2.63;;;1.50;;
4819;SDS011;2424;49.696;6.630;2023-04-16T11:29:19;2.20;;;2.10;;
4819;SDS011;2424;49.696;6.630;2023-04-16T11:34:45;0.50;;;0.50;;
4819;SDS011;2424;49.696;6.630;2023-04-16T11:40:07;1.17;;;0.60;;
4819;SDS011;2424;49.696;6.630;2023-04-16T11:45:30;3.43;;;3.10;;
4819;SDS011;2424;49.696;6.630;2023-04-16T11:50:56;0.30;;;0.30;;
4819;SDS011;2424;49.696;6.630;2023-04-16T11:56:25;2.73;;;2.53;;
4819;SDS011;2424;49.696;6.630;2023-04-16T12:01:49;1.40;;;1.40;;
4819;SDS011;2424;49.696;6.630;2023-04-16T12:07:13;1.77;;;1.67;;
4819;SDS011;2424;49.696;6.630;2023-04-16T12:12:35;5.13;;;1.47;;
4819;SDS011;2424;49.696;6.630;2023-04-16T12:18:04;0.83;;;0.83;;
4819;SDS011;2424;49.696;6.630;2023-04-16T12:23:29;1.10;;;1.10;;
4819;SDS011;2424;49.696;6.630;2023-04-16T12:28:52;1.47;;;1.37;;
4819;SDS011;2424;49.696;6.630;2023-04-16T12:34:15;2.77;;;2.53;;
4819;SDS011;2424;49.696;6.630;2023-04-16T12:39:39;2.40;;;2.20;;
4819;SDS011;2424;49.696;6.630;2023-04-16T12:45:01;1.50;;;1.40;;
4819;SDS011;2424;49.696;6.630;2023-04-16T12:50:24;1.07;;;0.67;;
4819;SDS011;2424;49.696;6.630;2023-04-16T12:55:48;1.33;;;0.83;;
4819;SDS011;2424;49.696;6.630;2023-04-16T13:01:10;1.03;;;0.93;;
4819;SDS011;2424;49.696;6.630;2023-04-16T13:06:32;1.50;;;1.50;;
4819;SDS011;2424;49.696;6.630;2023-04-16T13:11:57;2.20;;;2.00;;
4819;SDS011;2424;49.696;6.630;2023-04-16T13:17:19;0.93;;;0.77;;
4819;SDS011;2424;49.696;6.630;2023-04-16T13:22:41;2.50;;;2.33;;
4819;SDS011;2424;49.696;6.630;2023-04-16T13:28:04;2.70;;;2.20;;
4819;SDS011;2424;49.696;6.630;2023-04-16T13:33:26;1.87;;;1.77;;
4819;SDS011;2424;49.696;6.630;2023-04-16T13:38:48;1.73;;;1.73;;
4819;SDS011;2424;49.696;6.630;2023-04-16T13:44:12;0.80;;;0.80;;
4819;SDS011;2424;49.696;6.630;2023-04-16T13:49:34;2.00;;;1.87;;
4819;SDS011;2424;49.696;6.630;2023-04-16T13:54:55;1.87;;;1.77;;
4819;SDS011;2424;49.696;6.630;2023-04-16T14:00:19;1.80;;;1.70;;
4819;SDS011;2424;49.696;6.630;2023-04-16T14:05:41;2.83;;;2.63;;
4819;SDS011;2424;49.696;6.630;2023-04-16T14:11:03;3.37;;;2.70;;
4819;SDS011;2424;49.696;6.630;2023-04-16T14:16:27;2.70;;;2.40;;
4819;SDS011;2424;49.696;6.630;2023-04-16T14:21:49;2.67;;;2.27;;
4819;SDS011;2424;49.696;6.630;2023-04-16T14:27:13;3.80;;;2.80;;
4819;SDS011;2424;49.696;6.630;2023-04-16T14:32:37;2.57;;;2.10;;
4819;SDS011;2424;49.696;6.630;2023-04-16T14:37:59;3.70;;;2.50;;
4819;SDS011;2424;49.696;6.630;2023-04-16T14:43:21;2.97;;;2.40;;
4819;SDS011;2424;49.696;6.630;2023-04-16T14:48:45;2.20;;;1.93;;
4819;SDS011;2424;49.696;6.630;2023-04-16T14:54:07;5.17;;;2.23;;
4819;SDS011;2424;49.696;6.630;2023-04-16T14:59:28;3.77;;;3.40;;
4819;SDS011;2424;49.696;6.630;2023-04-16T15:04:52;4.03;;;3.53;;
4819;SDS011;2424;49.696;6.630;2023-04-16T15:10:15;5.07;;;4.67;;
4819;SDS011;2424;49.696;6.630;2023-04-16T15:15:36;4.37;;;3.00;;
4819;SDS011;2424;49.696;6.630;2023-04-16T15:21:00;6.47;;;3.63;;
4819;SDS011;2424;49.696;6.630;2023-04-16T15:26:22;2.00;;;1.30;;
4819;SDS011;2424;49.696;6.630;2023-04-16T15:31:45;5.10;;;3.20;;
4819;SDS011;2424;49.696;6.630;2023-04-16T15:37:09;7.00;;;3.97;;
4819;SDS011;2424;49.696;6.630;2023-04-16T15:42:31;4.60;;;3.73;;
4819;SDS011;2424;49.696;6.630;2023-04-16T15:47:53;7.90;;;4.40;;
4819;SDS011;2424;49.696;6.630;2023-04-16T15:53:16;6.73;;;4.33;;
4819;SDS011;2424;49.696;6.630;2023-04-16T15:58:41;4.37;;;2.53;;
4819;SDS011;2424;49.696;6.630;2023-04-16T16:04:03;0.40;;;0.40;;
4819;SDS011;2424;49.696;6.630;2023-04-16T16:09:43;4.33;;;3.63;;
4819;SDS011;2424;49.696;6.630;2023-04-16T16:15:06;7.27;;;4.37;;
4819;SDS011;2424;49.696;6.630;2023-04-16T16:20:35;3.07;;;2.73;;
4819;SDS011;2424;49.696;6.630;2023-04-16T16:25:59;6.03;;;4.93;;
4819;SDS011;2424;49.696;6.630;2023-04-16T16:31:21;7.57;;;4.97;;
4819;SDS011;2424;49.696;6.630;2023-04-16T16:36:44;4.10;;;2.70;;
4819;SDS011;2424;49.696;6.630;2023-04-16T16:42:13;3.83;;;3.37;;
4819;SDS011;2424;49.696;6.630;2023-04-16T16:47:37;9.43;;;4.87;;
4819;SDS011;2424;49.696;6.630;2023-04-16T16:52:59;5.10;;;4.10;;
4819;SDS011;2424;49.696;6.630;2023-04-16T16:58:23;4.93;;;4.27;;
4819;SDS011;2424;49.696;6.630;2023-04-16T17:03:46;8.73;;;4.47;;
4819;SDS011;2424;49.696;6.630;2023-04-16T17:09:08;4.33;;;3.93;;
4819;SDS011;2424;49.696;6.630;2023-04-16T17:14:32;5.03;;;3.73;;
4819;SDS011;2424;49.696;6.630;2023-04-16T17:19:54;4.67;;;4.27;;
4819;SDS011;2424;49.696;6.630;2023-04-16T17:25:16;8.70;;;3.80;;
4819;SDS011;2424;49.696;6.630;2023-04-16T17:30:39;7.60;;;4.13;;
4819;SDS011;2424;49.696;6.630;2023-04-16T17:36:02;6.80;;;3.93;;
4819;SDS011;2424;49.696;6.630;2023-04-16T17:41:24;4.67;;;4.20;;
4819;SDS011;2424;49.696;6.630;2023-04-16T17:46:47;5.17;;;3.73;;
4819;SDS011;2424;49.696;6.630;2023-04-16T17:52:09;6.23;;;4.80;;
4819;SDS011;2424;49.696;6.630;2023-04-16T17:57:31;9.50;;;4.67;;
4819;SDS011;2424;49.696;6.630;2023-04-16T18:02:55;7.23;;;4.30;;
4819;SDS011;2424;49.696;6.630;2023-04-16T18:08:18;6.37;;;3.70;;
4819;SDS011;2424;49.696;6.630;2023-04-16T18:13:40;5.57;;;3.30;;
4819;SDS011;2424;49.696;6.630;2023-04-16T18:19:04;4.70;;;3.97;;
4819;SDS011;2424;49.696;6.630;2023-04-16T18:24:26;4.10;;;3.30;;
4819;SDS011;2424;49.696;6.630;2023-04-16T18:29:48;3.70;;;3.40;;
4819;SDS011;2424;49.696;6.630;2023-04-16T18:35:12;3.93;;;3.47;;
4819;SDS011;2424;49.696;6.630;2023-04-16T18:40:34;4.50;;;4.00;;
4819;SDS011;2424;49.696;6.630;2023-04-16T18:45:56;5.17;;;3.60;;
4819;SDS011;2424;49.696;6.630;2023-04-16T18:51:19;3.77;;;3.47;;
4819;SDS011;2424;49.696;6.630;2023-04-16T18:56:41;4.30;;;3.23;;
4819;SDS011;2424;49.696;6.630;2023-04-16T19:02:04;3.90;;;3.50;;
4819;SDS011;2424;49.696;6.630;2023-04-16T19:07:28;4.00;;;3.70;;
4819;SDS011;2424;49.696;6.630;2023-04-16T19:12:50;3.60;;;3.30;;
4819;SDS011;2424;49.696;6.630;2023-04-16T19:18:12;4.50;;;4.03;;
4819;SDS011;2424;49.696;6.630;2023-04-16T19:23:35;3.90;;;3.53;;
4819;SDS011;2424;49.696;6.630;2023-04-16T19:28:58;4.40;;;4.10;;
4819;SDS011;2424;49.696;6.630;2023-04-16T19:34:20;5.40;;;4.40;;
4819;SDS011;2424;49.696;6.630;2023-04-16T19:39:43;4.60;;;4.17;;
4819;SDS011;2424;49.696;6.630;2023-04-16T19:45:05;5.80;;;4.50;;
4819;SDS011;2424;49.696;6.630;2023-04-16T19:50:28;8.53;;;5.17;;
4819;SDS011;2424;49.696;6.630;2023-04-16T19:55:51;7.70;;;5.67;;
4819;SDS011;2424;49.696;6.630;2023-04-16T20:01:13;5.77;;;5.17;;
4819;SDS011;2424;49.696;6.630;2023-04-16T20:06:35;8.97;;;4.90;;
4819;SDS011;2424;49.696;6.630;2023-04-16T20:11:58;6.87;;;5.20;;
4819;SDS011;2424;49.696;6.630;2023-04-16T20:17:21;8.10;;;5.60;;
4819;SDS011;2424;49.696;6.630;2023-04-16T20:22:42;7.20;;;5.47;;
4819;SDS011;2424;49.696;6.630;2023-04-16T20:28:06;9.23;;;6.37;;
4819;SDS011;2424;49.696;6.630;2023-04-16T20:33:28;6.50;;;4.10;;
4819;SDS011;2424;49.696;6.630;2023-04-16T20:38:50;5.37;;;4.67;;
4819;SDS011;2424;49.696;6.630;2023-04-16T20:44:15;12.30;;;5.60;;
4819;SDS011;2424;49.696;6.630;2023-04-16T20:49:37;6.13;;;5.50;;
4819;SDS011;2424;49.696;6.630;2023-04-16T20:55:06;7.07;;;4.80;;
4819;SDS011;2424;49.696;6.630;2023-04-16T21:00:30;4.50;;;4.17;;
4819;SDS011;2424;49.696;6.630;2023-04-16T21:05:52;6.13;;;4.57;;
4819;SDS011;2424;49.696;6.630;2023-04-16T21:11:15;5.20;;;4.60;;
4819;SDS011;2424;49.696;6.630;2023-04-16T21:16:38;5.40;;;4.07;;
4819;SDS011;2424;49.696;6.630;2023-04-16T21:22:00;6.97;;;4.87;;
4819;SDS011;2424;49.696;6.630;2023-04-16T21:27:22;8.40;;;5.23;;
4819;SDS011;2424;49.696;6.630;2023-04-16T21:32:45;6.00;;;4.40;;
4819;SDS011;2424;49.696;6.630;2023-04-16T21:38:07;9.10;;;5.80;;
4819;SDS011;2424;49.696;6.630;2023-04-16T21:43:29;5.60;;;3.50;;
4819;SDS011;2424;49.696;6.630;2023-04-16T21:48:53;5.70;;;4.30;;
4819;SDS011;2424;49.696;6.630;2023-04-16T21:54:15;4.33;;;3.20;;
4819;SDS011;2424;49.696;6.630;2023-04-16T21:59:39;4.80;;;3.90;;
4819;SDS011;2424;49.696;6.630;2023-04-16T22:05:02;4.40;;;3.53;;
4819;SDS011;2424;49.696;6.630;2023-04-16T22:10:24;7.80;;;5.10;;
4819;SDS011;2424;49.696;6.630;2023-04-16T22:15:46;2.67;;;2.30;;
4819;SDS011;2424;49.696;6.630;2023-04-16T22:21:09;6.97;;;4.80;;
4819;SDS011;2424;49.696;6.630;2023-04-16T22:26:31;10.10;;;5.50;;
4819;SDS011;2424;49.696;6.630;2023-04-16T22:31:53;5.43;;;3.63;;
4819;SDS011;2424;49.696;6.630;2023-04-16T22:37:17;3.10;;;2.87;;
4819;SDS011;2424;49.696;6.630;2023-04-16T22:42:39;4.13;;;3.73;;
4819;SDS011;2424;49.696;6.630;2023-04-16T22:48:00;4.00;;;3.63;;
4819;SDS011;2424;49.696;6.630;2023-04-16T22:53:24;5.97;;;4.20;;
4819;SDS011;2424;49.696;6.630;2023-04-16T22:58:46;3.43;;;3.10;;
4819;SDS011;2424;49.696;6.630;2023-04-16T23:04:09;3.50;;;3.20;;
4819;SDS011;2424;49.696;6.630;2023-04-16T23:09:32;6.00;;;3.67;;
4819;SDS011;2424;49.696;6.630;2023-04-16T23:14:54;4.90;;;3.90;;
4819;SDS011;2424;49.696;6.630;2023-04-16T23:20:17;3.50;;;3.20;;
4819;SDS011;2424;49.696;6.630;2023-04-16T23:25:40;4.30;;;3.03;;
4819;SDS011;2424;49.696;6.630;2023-04-16T23:31:02;3.90;;;3.27;;
4819;SDS011;2424;49.696;6.630;2023-04-16T23:36:24;4.93;;;3.70;;
4819;SDS011;2424;49.696;6.630;2023-04-16T23:41:48;5.43;;;4.17;;
4819;SDS011;2424;49.696;6.630;2023-04-16T23:47:10;4.13;;;3.10;;
4819;SDS011;2424;49.696;6.630;2023-04-16T23:52:32;5.00;;;3.30;;
4819;SDS011;2424;49.696;6.630;2023-04-16T23:57:55;4.77;;;4.20;;
